sensor_id;sensor_type;location;lat;lon;timestamp;temperature;humidity
152;DHT22;68;48.792;9.164;2022-12-07T00:00:13;5.20;95.90
152;DHT22;68;48.792;9.164;2022-12-07T00:02:40;4.90;95.80
152;DHT22;68;48.792;9.164;2022-12-07T00:05:07;5.10;95.00
152;DHT22;68;48.792;9.164;2022-12-07T00:07:35;5.30;95.70
152;DHT22;68;48.792;9.164;2022-12-07T00:10:02;5.40;96.30
152;DHT22;68;48.792;9.164;2022-12-07T00:12:29;5.20;97.00
152;DHT22;68;48.792;9.164;2022-12-07T00:14:56;5.30;97.00
152;DHT22;68;48.792;9.164;2022-12-07T00:17:23;5.00;96.70
152;DHT22;68;48.792;9.164;2022-12-07T00:19:49;4.80;96.40
152;DHT22;68;48.792;9.164;2022-12-07T00:22:16;4.80;95.50
152;DHT22;68;48.792;9.164;2022-12-07T00:24:44;4.60;94.70
152;DHT22;68;48.792;9.164;2022-12-07T00:27:12;4.50;93.40
152;DHT22;68;48.792;9.164;2022-12-07T00:29:38;4.40;92.20
152;DHT22;68;48.792;9.164;2022-12-07T00:32:05;4.50;91.30
152;DHT22;68;48.792;9.164;2022-12-07T00:34:32;4.30;91.40
152;DHT22;68;48.792;9.164;2022-12-07T00:36:58;4.20;89.80
152;DHT22;68;48.792;9.164;2022-12-07T00:39:25;4.30;89.60
152;DHT22;68;48.792;9.164;2022-12-07T00:41:53;4.20;90.30
152;DHT22;68;48.792;9.164;2022-12-07T00:44:20;4.10;91.90
152;DHT22;68;48.792;9.164;2022-12-07T00:46:47;4.30;90.50
152;DHT22;68;48.792;9.164;2022-12-07T00:49:15;4.50;90.80
152;DHT22;68;48.792;9.164;2022-12-07T00:51:42;4.60;92.20
152;DHT22;68;48.792;9.164;2022-12-07T00:54:09;4.50;94.70
152;DHT22;68;48.792;9.164;2022-12-07T00:56:35;4.60;94.10
152;DHT22;68;48.792;9.164;2022-12-07T00:59:04;4.70;95.40
152;DHT22;68;48.792;9.164;2022-12-07T01:01:33;5.00;96.10
152;DHT22;68;48.792;9.164;2022-12-07T01:04:00;4.80;97.30
152;DHT22;68;48.792;9.164;2022-12-07T01:06:28;4.70;97.20
152;DHT22;68;48.792;9.164;2022-12-07T01:08:55;4.90;97.00
152;DHT22;68;48.792;9.164;2022-12-07T01:11:24;4.90;97.70
152;DHT22;68;48.792;9.164;2022-12-07T01:13:53;4.90;97.60
152;DHT22;68;48.792;9.164;2022-12-07T01:16:23;4.90;97.70
152;DHT22;68;48.792;9.164;2022-12-07T01:18:51;4.80;98.00
152;DHT22;68;48.792;9.164;2022-12-07T01:21:23;4.80;98.00
152;DHT22;68;48.792;9.164;2022-12-07T01:23:50;4.60;97.70
152;DHT22;68;48.792;9.164;2022-12-07T01:26:19;4.40;97.40
152;DHT22;68;48.792;9.164;2022-12-07T01:28:47;4.50;97.20
152;DHT22;68;48.792;9.164;2022-12-07T01:31:16;4.60;97.70
152;DHT22;68;48.792;9.164;2022-12-07T01:33:47;4.60;97.50
152;DHT22;68;48.792;9.164;2022-12-07T01:36:15;4.90;97.70
152;DHT22;68;48.792;9.164;2022-12-07T01:38:44;4.70;97.60
152;DHT22;68;48.792;9.164;2022-12-07T01:41:11;4.90;97.80
152;DHT22;68;48.792;9.164;2022-12-07T01:44:14;4.60;98.10
152;DHT22;68;48.792;9.164;2022-12-07T01:46:42;4.80;98.10
152;DHT22;68;48.792;9.164;2022-12-07T01:49:13;4.90;98.10
152;DHT22;68;48.792;9.164;2022-12-07T01:51:42;5.10;98.20
152;DHT22;68;48.792;9.164;2022-12-07T01:54:11;5.10;98.10
152;DHT22;68;48.792;9.164;2022-12-07T01:56:40;5.20;98.30
152;DHT22;68;48.792;9.164;2022-12-07T01:59:09;5.30;98.20
152;DHT22;68;48.792;9.164;2022-12-07T02:01:37;4.90;98.00
152;DHT22;68;48.792;9.164;2022-12-07T02:04:04;4.70;98.00
152;DHT22;68;48.792;9.164;2022-12-07T02:06:32;4.50;97.80
152;DHT22;68;48.792;9.164;2022-12-07T02:08:59;4.80;97.70
152;DHT22;68;48.792;9.164;2022-12-07T02:11:26;4.80;98.20
152;DHT22;68;48.792;9.164;2022-12-07T02:13:53;4.70;98.10
152;DHT22;68;48.792;9.164;2022-12-07T02:16:27;4.70;97.70
152;DHT22;68;48.792;9.164;2022-12-07T02:19:14;4.80;97.80
152;DHT22;68;48.792;9.164;2022-12-07T02:21:52;5.00;98.30
152;DHT22;68;48.792;9.164;2022-12-07T02:24:31;5.10;98.30
152;DHT22;68;48.792;9.164;2022-12-07T02:27:16;4.90;98.10
152;DHT22;68;48.792;9.164;2022-12-07T02:29:49;5.10;98.20
152;DHT22;68;48.792;9.164;2022-12-07T02:32:19;5.20;98.20
152;DHT22;68;48.792;9.164;2022-12-07T02:34:50;4.90;98.10
152;DHT22;68;48.792;9.164;2022-12-07T02:37:29;4.50;98.10
152;DHT22;68;48.792;9.164;2022-12-07T02:40:05;4.40;97.70
152;DHT22;68;48.792;9.164;2022-12-07T02:42:39;4.30;96.80
152;DHT22;68;48.792;9.164;2022-12-07T02:45:09;4.60;96.60
152;DHT22;68;48.792;9.164;2022-12-07T02:47:37;4.70;97.10
152;DHT22;68;48.792;9.164;2022-12-07T02:50:05;4.90;97.60
152;DHT22;68;48.792;9.164;2022-12-07T02:52:32;4.90;97.60
152;DHT22;68;48.792;9.164;2022-12-07T02:54:59;4.50;97.40
152;DHT22;68;48.792;9.164;2022-12-07T02:57:38;4.40;97.00
152;DHT22;68;48.792;9.164;2022-12-07T03:00:11;4.70;97.20
152;DHT22;68;48.792;9.164;2022-12-07T03:02:49;4.90;97.90
152;DHT22;68;48.792;9.164;2022-12-07T03:05:43;5.10;98.10
152;DHT22;68;48.792;9.164;2022-12-07T03:08:23;4.80;98.10
152;DHT22;68;48.792;9.164;2022-12-07T03:10:56;4.70;98.10
152;DHT22;68;48.792;9.164;2022-12-07T03:13:28;4.70;97.80
152;DHT22;68;48.792;9.164;2022-12-07T03:16:01;5.00;98.00
152;DHT22;68;48.792;9.164;2022-12-07T03:18:31;5.00;98.30
152;DHT22;68;48.792;9.164;2022-12-07T03:21:02;5.10;98.20
152;DHT22;68;48.792;9.164;2022-12-07T03:23:34;5.30;98.30
152;DHT22;68;48.792;9.164;2022-12-07T03:26:03;5.40;98.10
152;DHT22;68;48.792;9.164;2022-12-07T03:28:33;5.00;97.90
152;DHT22;68;48.792;9.164;2022-12-07T03:31:04;4.90;97.90
152;DHT22;68;48.792;9.164;2022-12-07T03:33:35;5.10;98.30
152;DHT22;68;48.792;9.164;2022-12-07T03:36:06;5.20;98.30
152;DHT22;68;48.792;9.164;2022-12-07T03:38:38;4.80;98.10
152;DHT22;68;48.792;9.164;2022-12-07T03:41:10;4.90;98.30
152;DHT22;68;48.792;9.164;2022-12-07T03:43:39;5.10;98.30
152;DHT22;68;48.792;9.164;2022-12-07T03:46:17;5.00;98.00
152;DHT22;68;48.792;9.164;2022-12-07T03:48:52;4.90;98.30
152;DHT22;68;48.792;9.164;2022-12-07T03:51:24;4.50;98.10
152;DHT22;68;48.792;9.164;2022-12-07T03:53:57;4.50;97.70
152;DHT22;68;48.792;9.164;2022-12-07T03:56:26;4.50;96.90
152;DHT22;68;48.792;9.164;2022-12-07T03:58:54;4.50;98.00
152;DHT22;68;48.792;9.164;2022-12-07T04:01:23;4.40;98.00
152;DHT22;68;48.792;9.164;2022-12-07T04:03:50;4.50;97.80
152;DHT22;68;48.792;9.164;2022-12-07T04:06:17;4.60;98.00
152;DHT22;68;48.792;9.164;2022-12-07T04:08:44;4.70;98.10
152;DHT22;68;48.792;9.164;2022-12-07T04:11:11;4.50;97.90
152;DHT22;68;48.792;9.164;2022-12-07T04:13:37;4.40;98.20
152;DHT22;68;48.792;9.164;2022-12-07T04:16:18;4.30;97.70
152;DHT22;68;48.792;9.164;2022-12-07T04:18:46;4.20;97.60
152;DHT22;68;48.792;9.164;2022-12-07T04:21:13;4.00;97.60
152;DHT22;68;48.792;9.164;2022-12-07T04:23:40;4.00;96.80
152;DHT22;68;48.792;9.164;2022-12-07T04:26:06;4.10;97.80
152;DHT22;68;48.792;9.164;2022-12-07T04:28:33;4.10;97.90
152;DHT22;68;48.792;9.164;2022-12-07T04:31:00;4.10;97.90
152;DHT22;68;48.792;9.164;2022-12-07T04:33:26;4.00;97.80
152;DHT22;68;48.792;9.164;2022-12-07T04:35:55;3.80;96.80
152;DHT22;68;48.792;9.164;2022-12-07T04:38:21;3.80;96.80
152;DHT22;68;48.792;9.164;2022-12-07T04:40:48;3.80;97.00
152;DHT22;68;48.792;9.164;2022-12-07T04:43:15;3.80;97.10
152;DHT22;68;48.792;9.164;2022-12-07T04:45:45;3.70;97.10
152;DHT22;68;48.792;9.164;2022-12-07T04:48:12;3.60;96.30
152;DHT22;68;48.792;9.164;2022-12-07T04:50:39;3.70;95.60
152;DHT22;68;48.792;9.164;2022-12-07T04:53:07;3.70;96.30
152;DHT22;68;48.792;9.164;2022-12-07T04:55:34;3.80;96.50
152;DHT22;68;48.792;9.164;2022-12-07T04:58:01;3.60;97.90
152;DHT22;68;48.792;9.164;2022-12-07T05:00:27;3.90;98.00
152;DHT22;68;48.792;9.164;2022-12-07T05:02:54;3.80;98.40
152;DHT22;68;48.792;9.164;2022-12-07T05:05:21;3.60;98.60
152;DHT22;68;48.792;9.164;2022-12-07T05:07:47;3.50;98.40
152;DHT22;68;48.792;9.164;2022-12-07T05:10:16;3.50;98.60
152;DHT22;68;48.792;9.164;2022-12-07T05:12:43;3.50;98.40
152;DHT22;68;48.792;9.164;2022-12-07T05:15:11;3.60;98.50
152;DHT22;68;48.792;9.164;2022-12-07T05:17:38;3.40;98.50
152;DHT22;68;48.792;9.164;2022-12-07T05:20:06;3.30;98.10
152;DHT22;68;48.792;9.164;2022-12-07T05:22:32;3.20;97.60
152;DHT22;68;48.792;9.164;2022-12-07T05:24:59;3.10;97.20
152;DHT22;68;48.792;9.164;2022-12-07T05:27:27;3.10;97.60
152;DHT22;68;48.792;9.164;2022-12-07T05:29:54;2.90;97.50
152;DHT22;68;48.792;9.164;2022-12-07T05:32:21;2.80;97.30
152;DHT22;68;48.792;9.164;2022-12-07T05:34:47;3.00;97.30
152;DHT22;68;48.792;9.164;2022-12-07T05:37:14;3.10;97.50
152;DHT22;68;48.792;9.164;2022-12-07T05:39:41;2.90;97.70
152;DHT22;68;48.792;9.164;2022-12-07T05:42:09;2.70;98.20
152;DHT22;68;48.792;9.164;2022-12-07T05:44:40;2.90;98.50
152;DHT22;68;48.792;9.164;2022-12-07T05:47:07;2.90;98.80
152;DHT22;68;48.792;9.164;2022-12-07T05:49:34;2.90;98.50
152;DHT22;68;48.792;9.164;2022-12-07T05:52:01;2.70;98.60
152;DHT22;68;48.792;9.164;2022-12-07T05:54:28;2.60;98.50
152;DHT22;68;48.792;9.164;2022-12-07T05:56:55;2.70;97.80
152;DHT22;68;48.792;9.164;2022-12-07T05:59:22;2.70;97.60
152;DHT22;68;48.792;9.164;2022-12-07T06:01:49;2.90;97.90
152;DHT22;68;48.792;9.164;2022-12-07T06:04:16;3.00;98.00
152;DHT22;68;48.792;9.164;2022-12-07T06:06:43;2.90;98.20
152;DHT22;68;48.792;9.164;2022-12-07T06:09:10;3.20;97.60
152;DHT22;68;48.792;9.164;2022-12-07T06:11:38;3.20;98.20
152;DHT22;68;48.792;9.164;2022-12-07T06:14:23;3.10;97.50
152;DHT22;68;48.792;9.164;2022-12-07T06:16:51;3.00;97.50
152;DHT22;68;48.792;9.164;2022-12-07T06:19:18;3.00;97.30
152;DHT22;68;48.792;9.164;2022-12-07T06:21:44;2.80;97.40
152;DHT22;68;48.792;9.164;2022-12-07T06:24:13;2.70;96.50
152;DHT22;68;48.792;9.164;2022-12-07T06:26:40;2.60;96.10
152;DHT22;68;48.792;9.164;2022-12-07T06:29:07;2.60;96.80
152;DHT22;68;48.792;9.164;2022-12-07T06:31:35;2.90;96.60
152;DHT22;68;48.792;9.164;2022-12-07T06:34:05;2.90;96.90
152;DHT22;68;48.792;9.164;2022-12-07T06:36:32;2.80;96.60
152;DHT22;68;48.792;9.164;2022-12-07T06:38:59;2.80;96.90
152;DHT22;68;48.792;9.164;2022-12-07T06:41:26;3.10;96.30
152;DHT22;68;48.792;9.164;2022-12-07T06:43:52;3.30;97.60
152;DHT22;68;48.792;9.164;2022-12-07T06:46:19;3.40;98.10
152;DHT22;68;48.792;9.164;2022-12-07T06:48:46;3.40;98.50
152;DHT22;68;48.792;9.164;2022-12-07T06:51:14;3.50;98.60
152;DHT22;68;48.792;9.164;2022-12-07T06:53:41;3.50;98.50
152;DHT22;68;48.792;9.164;2022-12-07T06:56:08;3.40;98.40
152;DHT22;68;48.792;9.164;2022-12-07T06:58:35;3.30;98.40
152;DHT22;68;48.792;9.164;2022-12-07T07:01:02;3.20;98.50
152;DHT22;68;48.792;9.164;2022-12-07T07:03:29;3.10;98.50
152;DHT22;68;48.792;9.164;2022-12-07T07:05:56;3.30;98.20
152;DHT22;68;48.792;9.164;2022-12-07T07:08:24;3.20;98.40
152;DHT22;68;48.792;9.164;2022-12-07T07:10:51;3.00;98.80
152;DHT22;68;48.792;9.164;2022-12-07T07:13:18;3.00;98.10
152;DHT22;68;48.792;9.164;2022-12-07T07:15:44;3.10;98.10
152;DHT22;68;48.792;9.164;2022-12-07T07:18:11;3.20;98.10
152;DHT22;68;48.792;9.164;2022-12-07T07:20:39;3.10;98.20
152;DHT22;68;48.792;9.164;2022-12-07T07:23:06;3.10;97.90
152;DHT22;68;48.792;9.164;2022-12-07T07:25:34;3.30;97.40
152;DHT22;68;48.792;9.164;2022-12-07T07:28:02;3.30;97.80
152;DHT22;68;48.792;9.164;2022-12-07T07:30:29;3.70;98.10
152;DHT22;68;48.792;9.164;2022-12-07T07:32:56;3.80;98.40
152;DHT22;68;48.792;9.164;2022-12-07T07:35:24;3.60;98.40
152;DHT22;68;48.792;9.164;2022-12-07T07:37:51;3.70;98.50
152;DHT22;68;48.792;9.164;2022-12-07T07:40:18;3.70;98.40
152;DHT22;68;48.792;9.164;2022-12-07T07:42:48;4.00;98.30
152;DHT22;68;48.792;9.164;2022-12-07T07:45:15;4.20;97.70
152;DHT22;68;48.792;9.164;2022-12-07T07:47:42;4.00;97.00
152;DHT22;68;48.792;9.164;2022-12-07T07:50:09;4.30;96.50
152;DHT22;68;48.792;9.164;2022-12-07T07:52:36;4.60;94.90
152;DHT22;68;48.792;9.164;2022-12-07T07:55:04;4.60;94.50
152;DHT22;68;48.792;9.164;2022-12-07T07:57:31;4.70;92.90
152;DHT22;68;48.792;9.164;2022-12-07T07:59:59;4.60;93.40
152;DHT22;68;48.792;9.164;2022-12-07T08:02:26;4.70;92.60
152;DHT22;68;48.792;9.164;2022-12-07T08:04:55;4.70;93.10
152;DHT22;68;48.792;9.164;2022-12-07T08:07:22;4.70;93.30
152;DHT22;68;48.792;9.164;2022-12-07T08:09:48;4.60;94.00
152;DHT22;68;48.792;9.164;2022-12-07T08:12:15;4.60;95.40
152;DHT22;68;48.792;9.164;2022-12-07T08:14:42;4.20;95.10
152;DHT22;68;48.792;9.164;2022-12-07T08:17:10;4.20;95.10
152;DHT22;68;48.792;9.164;2022-12-07T08:19:38;4.50;95.40
152;DHT22;68;48.792;9.164;2022-12-07T08:22:05;4.40;94.90
152;DHT22;68;48.792;9.164;2022-12-07T08:24:33;4.40;93.20
152;DHT22;68;48.792;9.164;2022-12-07T08:27:00;4.60;91.60
152;DHT22;68;48.792;9.164;2022-12-07T08:29:27;4.70;90.70
152;DHT22;68;48.792;9.164;2022-12-07T08:31:53;4.90;90.20
152;DHT22;68;48.792;9.164;2022-12-07T08:34:22;4.80;88.60
152;DHT22;68;48.792;9.164;2022-12-07T08:36:48;5.00;88.50
152;DHT22;68;48.792;9.164;2022-12-07T08:39:15;5.00;88.40
152;DHT22;68;48.792;9.164;2022-12-07T08:41:42;4.70;88.20
152;DHT22;68;48.792;9.164;2022-12-07T08:44:09;4.50;88.50
152;DHT22;68;48.792;9.164;2022-12-07T08:46:38;4.80;89.10
152;DHT22;68;48.792;9.164;2022-12-07T08:49:08;4.90;88.60
152;DHT22;68;48.792;9.164;2022-12-07T08:51:40;5.00;88.10
152;DHT22;68;48.792;9.164;2022-12-07T08:54:11;5.10;87.50
152;DHT22;68;48.792;9.164;2022-12-07T08:56:38;5.20;87.00
152;DHT22;68;48.792;9.164;2022-12-07T08:59:06;5.30;86.90
152;DHT22;68;48.792;9.164;2022-12-07T09:01:33;5.10;86.30
152;DHT22;68;48.792;9.164;2022-12-07T09:04:00;4.90;86.30
152;DHT22;68;48.792;9.164;2022-12-07T09:06:27;5.00;86.90
152;DHT22;68;48.792;9.164;2022-12-07T09:08:58;4.90;87.10
152;DHT22;68;48.792;9.164;2022-12-07T09:11:25;5.20;88.00
152;DHT22;68;48.792;9.164;2022-12-07T09:13:52;5.20;86.70
152;DHT22;68;48.792;9.164;2022-12-07T09:16:18;5.40;86.90
152;DHT22;68;48.792;9.164;2022-12-07T09:18:45;5.30;85.90
152;DHT22;68;48.792;9.164;2022-12-07T09:21:12;5.30;85.80
152;DHT22;68;48.792;9.164;2022-12-07T09:23:39;5.40;85.70
152;DHT22;68;48.792;9.164;2022-12-07T09:26:09;5.40;85.20
152;DHT22;68;48.792;9.164;2022-12-07T09:28:36;5.30;85.60
152;DHT22;68;48.792;9.164;2022-12-07T09:31:03;5.50;86.80
152;DHT22;68;48.792;9.164;2022-12-07T09:33:30;5.50;86.20
152;DHT22;68;48.792;9.164;2022-12-07T09:35:59;5.50;85.50
152;DHT22;68;48.792;9.164;2022-12-07T09:38:28;5.60;86.00
152;DHT22;68;48.792;9.164;2022-12-07T09:40:55;5.90;85.30
152;DHT22;68;48.792;9.164;2022-12-07T09:43:24;6.10;84.40
152;DHT22;68;48.792;9.164;2022-12-07T09:45:54;6.10;84.30
152;DHT22;68;48.792;9.164;2022-12-07T09:48:25;6.10;83.50
152;DHT22;68;48.792;9.164;2022-12-07T09:50:57;5.90;83.20
152;DHT22;68;48.792;9.164;2022-12-07T09:53:26;5.70;85.30
152;DHT22;68;48.792;9.164;2022-12-07T09:55:54;5.80;85.30
152;DHT22;68;48.792;9.164;2022-12-07T09:58:24;5.60;85.50
152;DHT22;68;48.792;9.164;2022-12-07T10:00:53;5.60;86.10
152;DHT22;68;48.792;9.164;2022-12-07T10:03:22;5.40;86.80
152;DHT22;68;48.792;9.164;2022-12-07T10:05:50;5.40;86.50
152;DHT22;68;48.792;9.164;2022-12-07T10:08:18;5.40;87.30
152;DHT22;68;48.792;9.164;2022-12-07T10:10:48;5.40;87.90
152;DHT22;68;48.792;9.164;2022-12-07T10:13:19;5.30;88.20
152;DHT22;68;48.792;9.164;2022-12-07T10:15:50;5.30;88.40
152;DHT22;68;48.792;9.164;2022-12-07T10:18:26;5.40;88.50
152;DHT22;68;48.792;9.164;2022-12-07T10:21:02;5.70;87.50
152;DHT22;68;48.792;9.164;2022-12-07T10:23:30;5.40;86.90
152;DHT22;68;48.792;9.164;2022-12-07T10:25:56;5.50;87.50
152;DHT22;68;48.792;9.164;2022-12-07T10:28:27;5.60;87.30
152;DHT22;68;48.792;9.164;2022-12-07T10:31:02;5.80;87.30
152;DHT22;68;48.792;9.164;2022-12-07T10:33:33;5.70;86.60
152;DHT22;68;48.792;9.164;2022-12-07T10:36:16;5.70;87.30
152;DHT22;68;48.792;9.164;2022-12-07T10:38:45;5.70;88.40
152;DHT22;68;48.792;9.164;2022-12-07T10:41:13;5.90;87.60
152;DHT22;68;48.792;9.164;2022-12-07T10:43:47;6.00;87.20
152;DHT22;68;48.792;9.164;2022-12-07T10:52:20;6.40;85.60
152;DHT22;68;48.792;9.164;2022-12-07T10:55:03;6.30;86.20
152;DHT22;68;48.792;9.164;2022-12-07T10:57:43;6.20;87.50
152;DHT22;68;48.792;9.164;2022-12-07T11:00:17;5.90;88.00
152;DHT22;68;48.792;9.164;2022-12-07T11:06:01;5.80;89.10
152;DHT22;68;48.792;9.164;2022-12-07T11:08:43;6.00;89.90
152;DHT22;68;48.792;9.164;2022-12-07T11:11:16;6.10;88.90
152;DHT22;68;48.792;9.164;2022-12-07T11:13:50;6.00;88.50
152;DHT22;68;48.792;9.164;2022-12-07T11:16:24;5.90;88.90
152;DHT22;68;48.792;9.164;2022-12-07T11:19:16;5.80;90.00
152;DHT22;68;48.792;9.164;2022-12-07T11:21:56;5.90;90.00
152;DHT22;68;48.792;9.164;2022-12-07T11:24:30;6.00;90.00
152;DHT22;68;48.792;9.164;2022-12-07T11:27:10;5.90;89.00
152;DHT22;68;48.792;9.164;2022-12-07T11:29:55;5.90;89.90
152;DHT22;68;48.792;9.164;2022-12-07T11:32:40;6.10;89.30
152;DHT22;68;48.792;9.164;2022-12-07T11:35:14;6.10;89.90
152;DHT22;68;48.792;9.164;2022-12-07T11:37:46;6.20;89.40
152;DHT22;68;48.792;9.164;2022-12-07T11:40:18;5.90;88.90
152;DHT22;68;48.792;9.164;2022-12-07T11:42:53;5.80;90.50
152;DHT22;68;48.792;9.164;2022-12-07T11:45:25;5.90;90.80
152;DHT22;68;48.792;9.164;2022-12-07T11:47:54;5.80;89.90
152;DHT22;68;48.792;9.164;2022-12-07T11:50:27;5.70;90.80
152;DHT22;68;48.792;9.164;2022-12-07T11:53:01;5.70;91.00
152;DHT22;68;48.792;9.164;2022-12-07T11:55:38;5.50;93.30
152;DHT22;68;48.792;9.164;2022-12-07T11:58:19;5.30;94.10
152;DHT22;68;48.792;9.164;2022-12-07T12:00:49;5.20;95.60
152;DHT22;68;48.792;9.164;2022-12-07T12:03:25;5.20;95.50
152;DHT22;68;48.792;9.164;2022-12-07T12:05:57;5.20;96.00
152;DHT22;68;48.792;9.164;2022-12-07T12:08:29;5.10;96.20
152;DHT22;68;48.792;9.164;2022-12-07T12:11:02;5.30;96.60
152;DHT22;68;48.792;9.164;2022-12-07T12:14:01;5.40;96.10
152;DHT22;68;48.792;9.164;2022-12-07T12:16:44;5.40;95.20
152;DHT22;68;48.792;9.164;2022-12-07T12:19:22;5.40;95.30
152;DHT22;68;48.792;9.164;2022-12-07T12:21:56;5.50;95.10
152;DHT22;68;48.792;9.164;2022-12-07T12:24:28;5.70;95.00
152;DHT22;68;48.792;9.164;2022-12-07T12:27:03;5.70;94.10
152;DHT22;68;48.792;9.164;2022-12-07T12:29:33;5.70;94.20
152;DHT22;68;48.792;9.164;2022-12-07T12:32:12;5.60;94.20
152;DHT22;68;48.792;9.164;2022-12-07T12:34:42;5.40;94.60
152;DHT22;68;48.792;9.164;2022-12-07T12:37:41;5.60;94.70
152;DHT22;68;48.792;9.164;2022-12-07T12:40:41;5.50;94.40
152;DHT22;68;48.792;9.164;2022-12-07T12:43:46;5.40;94.20
152;DHT22;68;48.792;9.164;2022-12-07T12:46:49;5.40;94.60
152;DHT22;68;48.792;9.164;2022-12-07T12:49:54;5.30;94.70
152;DHT22;68;48.792;9.164;2022-12-07T12:52:49;5.40;95.20
152;DHT22;68;48.792;9.164;2022-12-07T12:58:44;5.40;94.00
152;DHT22;68;48.792;9.164;2022-12-07T13:01:44;5.50;93.30
152;DHT22;68;48.792;9.164;2022-12-07T13:07:58;5.20;94.10
152;DHT22;68;48.792;9.164;2022-12-07T13:10:40;5.50;94.20
152;DHT22;68;48.792;9.164;2022-12-07T13:13:34;5.70;93.50
152;DHT22;68;48.792;9.164;2022-12-07T13:16:41;5.80;92.20
152;DHT22;68;48.792;9.164;2022-12-07T13:25:28;5.70;93.20
152;DHT22;68;48.792;9.164;2022-12-07T13:28:00;5.60;92.60
152;DHT22;68;48.792;9.164;2022-12-07T13:30:29;5.70;92.10
152;DHT22;68;48.792;9.164;2022-12-07T13:32:58;5.70;91.30
152;DHT22;68;48.792;9.164;2022-12-07T13:35:33;5.60;91.60
152;DHT22;68;48.792;9.164;2022-12-07T13:38:05;5.50;91.60
152;DHT22;68;48.792;9.164;2022-12-07T13:40:32;5.50;92.00
152;DHT22;68;48.792;9.164;2022-12-07T13:43:01;5.50;93.10
152;DHT22;68;48.792;9.164;2022-12-07T13:45:30;5.70;92.40
152;DHT22;68;48.792;9.164;2022-12-07T13:48:21;5.50;93.10
152;DHT22;68;48.792;9.164;2022-12-07T13:50:54;5.60;92.40
152;DHT22;68;48.792;9.164;2022-12-07T13:53:21;5.50;93.20
152;DHT22;68;48.792;9.164;2022-12-07T13:55:48;5.50;92.90
152;DHT22;68;48.792;9.164;2022-12-07T13:58:16;5.80;92.70
152;DHT22;68;48.792;9.164;2022-12-07T14:00:43;5.70;91.30
152;DHT22;68;48.792;9.164;2022-12-07T14:03:30;5.60;91.40
152;DHT22;68;48.792;9.164;2022-12-07T14:06:15;5.80;91.50
152;DHT22;68;48.792;9.164;2022-12-07T14:08:43;5.60;92.20
152;DHT22;68;48.792;9.164;2022-12-07T14:11:14;5.60;92.50
152;DHT22;68;48.792;9.164;2022-12-07T14:13:50;5.80;92.70
152;DHT22;68;48.792;9.164;2022-12-07T14:16:24;5.90;91.80
152;DHT22;68;48.792;9.164;2022-12-07T14:18:53;5.90;91.40
152;DHT22;68;48.792;9.164;2022-12-07T14:21:22;5.90;90.90
152;DHT22;68;48.792;9.164;2022-12-07T14:24:12;5.70;91.90
152;DHT22;68;48.792;9.164;2022-12-07T14:26:42;5.70;92.50
152;DHT22;68;48.792;9.164;2022-12-07T14:29:31;5.40;92.70
152;DHT22;68;48.792;9.164;2022-12-07T14:32:17;5.40;92.80
152;DHT22;68;48.792;9.164;2022-12-07T14:34:55;5.50;92.50
152;DHT22;68;48.792;9.164;2022-12-07T14:37:23;5.50;93.00
152;DHT22;68;48.792;9.164;2022-12-07T14:39:49;5.50;93.20
152;DHT22;68;48.792;9.164;2022-12-07T14:42:16;5.60;93.40
152;DHT22;68;48.792;9.164;2022-12-07T14:44:43;5.70;92.70
152;DHT22;68;48.792;9.164;2022-12-07T14:47:11;5.90;92.30
152;DHT22;68;48.792;9.164;2022-12-07T14:49:37;5.80;90.90
152;DHT22;68;48.792;9.164;2022-12-07T14:52:08;5.80;92.30
152;DHT22;68;48.792;9.164;2022-12-07T14:54:37;5.90;91.90
152;DHT22;68;48.792;9.164;2022-12-07T14:57:03;6.00;91.40
152;DHT22;68;48.792;9.164;2022-12-07T14:59:30;5.80;92.40
152;DHT22;68;48.792;9.164;2022-12-07T15:01:57;5.90;92.80
152;DHT22;68;48.792;9.164;2022-12-07T15:04:23;5.90;93.20
152;DHT22;68;48.792;9.164;2022-12-07T15:06:57;5.80;92.90
152;DHT22;68;48.792;9.164;2022-12-07T15:09:26;5.70;92.00
152;DHT22;68;48.792;9.164;2022-12-07T15:11:52;5.90;92.30
152;DHT22;68;48.792;9.164;2022-12-07T15:14:19;5.80;91.50
152;DHT22;68;48.792;9.164;2022-12-07T15:16:46;5.60;93.20
152;DHT22;68;48.792;9.164;2022-12-07T15:19:14;5.60;93.20
152;DHT22;68;48.792;9.164;2022-12-07T15:21:42;5.30;93.60
152;DHT22;68;48.792;9.164;2022-12-07T15:24:09;5.30;94.00
152;DHT22;68;48.792;9.164;2022-12-07T15:26:38;5.20;93.80
152;DHT22;68;48.792;9.164;2022-12-07T15:29:07;5.10;94.20
152;DHT22;68;48.792;9.164;2022-12-07T15:31:34;5.10;95.00
152;DHT22;68;48.792;9.164;2022-12-07T15:34:02;5.10;95.60
152;DHT22;68;48.792;9.164;2022-12-07T15:36:31;5.20;94.90
152;DHT22;68;48.792;9.164;2022-12-07T15:38:58;5.20;93.90
152;DHT22;68;48.792;9.164;2022-12-07T15:41:25;5.30;94.10
152;DHT22;68;48.792;9.164;2022-12-07T15:43:53;5.60;93.40
152;DHT22;68;48.792;9.164;2022-12-07T15:46:39;5.40;93.60
152;DHT22;68;48.792;9.164;2022-12-07T15:49:10;5.50;93.40
152;DHT22;68;48.792;9.164;2022-12-07T15:51:38;5.70;92.50
152;DHT22;68;48.792;9.164;2022-12-07T15:54:05;5.40;92.60
152;DHT22;68;48.792;9.164;2022-12-07T15:56:31;5.40;93.10
152;DHT22;68;48.792;9.164;2022-12-07T15:58:59;5.20;92.90
152;DHT22;68;48.792;9.164;2022-12-07T16:01:26;5.00;94.60
152;DHT22;68;48.792;9.164;2022-12-07T16:03:53;5.10;94.30
152;DHT22;68;48.792;9.164;2022-12-07T16:06:20;5.20;93.90
152;DHT22;68;48.792;9.164;2022-12-07T16:08:47;5.00;93.60
152;DHT22;68;48.792;9.164;2022-12-07T16:11:14;4.90;94.30
152;DHT22;68;48.792;9.164;2022-12-07T16:13:41;5.00;94.60
152;DHT22;68;48.792;9.164;2022-12-07T16:16:12;5.20;93.90
152;DHT22;68;48.792;9.164;2022-12-07T16:18:41;5.10;93.70
152;DHT22;68;48.792;9.164;2022-12-07T16:21:08;5.20;93.50
152;DHT22;68;48.792;9.164;2022-12-07T16:23:35;4.90;94.00
152;DHT22;68;48.792;9.164;2022-12-07T16:26:06;5.00;95.70
152;DHT22;68;48.792;9.164;2022-12-07T16:28:33;4.90;95.10
152;DHT22;68;48.792;9.164;2022-12-07T16:31:02;4.80;94.60
152;DHT22;68;48.792;9.164;2022-12-07T16:33:30;4.70;95.70
152;DHT22;68;48.792;9.164;2022-12-07T16:35:58;4.60;95.20
152;DHT22;68;48.792;9.164;2022-12-07T16:38:25;4.70;94.80
152;DHT22;68;48.792;9.164;2022-12-07T16:40:52;4.90;94.30
152;DHT22;68;48.792;9.164;2022-12-07T16:43:19;4.70;94.40
152;DHT22;68;48.792;9.164;2022-12-07T16:45:46;4.50;95.80
152;DHT22;68;48.792;9.164;2022-12-07T16:48:13;4.50;96.20
152;DHT22;68;48.792;9.164;2022-12-07T16:50:42;4.60;96.10
152;DHT22;68;48.792;9.164;2022-12-07T16:53:09;4.50;95.40
152;DHT22;68;48.792;9.164;2022-12-07T16:55:37;4.40;96.00
152;DHT22;68;48.792;9.164;2022-12-07T16:58:04;4.50;96.00
152;DHT22;68;48.792;9.164;2022-12-07T17:00:31;4.10;96.10
152;DHT22;68;48.792;9.164;2022-12-07T17:02:58;3.90;97.00
152;DHT22;68;48.792;9.164;2022-12-07T17:05:25;3.90;97.60
152;DHT22;68;48.792;9.164;2022-12-07T17:07:56;3.90;97.50
152;DHT22;68;48.792;9.164;2022-12-07T17:10:24;3.80;97.80
152;DHT22;68;48.792;9.164;2022-12-07T17:12:51;3.90;97.90
152;DHT22;68;48.792;9.164;2022-12-07T17:15:18;3.80;97.50
152;DHT22;68;48.792;9.164;2022-12-07T17:17:50;3.70;97.30
152;DHT22;68;48.792;9.164;2022-12-07T17:20:19;3.70;97.90
152;DHT22;68;48.792;9.164;2022-12-07T17:22:46;4.00;97.00
152;DHT22;68;48.792;9.164;2022-12-07T17:25:14;3.90;96.30
152;DHT22;68;48.792;9.164;2022-12-07T17:27:41;4.10;96.70
152;DHT22;68;48.792;9.164;2022-12-07T17:30:10;4.30;96.00
152;DHT22;68;48.792;9.164;2022-12-07T17:32:37;4.20;95.40
152;DHT22;68;48.792;9.164;2022-12-07T17:35:05;4.30;95.50
152;DHT22;68;48.792;9.164;2022-12-07T17:37:32;4.40;95.90
152;DHT22;68;48.792;9.164;2022-12-07T17:39:59;4.50;95.20
152;DHT22;68;48.792;9.164;2022-12-07T17:42:27;4.60;94.40
152;DHT22;68;48.792;9.164;2022-12-07T17:45:06;4.60;94.30
152;DHT22;68;48.792;9.164;2022-12-07T17:47:33;4.80;94.60
152;DHT22;68;48.792;9.164;2022-12-07T17:50:00;5.10;93.40
152;DHT22;68;48.792;9.164;2022-12-07T17:52:27;5.00;93.50